sensor_id;sensor_type;location;lat;lon;timestamp;temperature;humidity
44843;DHT22;31884;52.538;13.820;2023-05-07T00:00:11;8.40;99.90
44843;DHT22;31884;52.538;13.820;2023-05-07T00:02:37;8.30;99.90
44843;DHT22;31884;52.538;13.820;2023-05-07T00:05:03;8.40;99.90
44843;DHT22;31884;52.538;13.820;2023-05-07T00:07:29;8.40;99.90
44843;DHT22;31884;52.538;13.820;2023-05-07T00:09:54;8.40;99.90
44843;DHT22;31884;52.538;13.820;2023-05-07T00:12:20;8.40;99.90
44843;DHT22;31884;52.538;13.820;2023-05-07T00:14:46;8.40;99.90
44843;DHT22;31884;52.538;13.820;2023-05-07T00:17:11;8.40;99.90
44843;DHT22;31884;52.538;13.820;2023-05-07T00:19:37;8.40;99.90
44843;DHT22;31884;52.538;13.820;2023-05-07T00:22:02;8.30;99.90
44843;DHT22;31884;52.538;13.820;2023-05-07T00:24:28;8.30;99.90
44843;DHT22;31884;52.538;13.820;2023-05-07T00:26:53;8.30;99.90
44843;DHT22;31884;52.538;13.820;2023-05-07T00:29:19;8.40;99.90
44843;DHT22;31884;52.538;13.820;2023-05-07T00:31:44;8.40;99.90
44843;DHT22;31884;52.538;13.820;2023-05-07T00:34:10;8.40;99.90
44843;DHT22;31884;52.538;13.820;2023-05-07T00:36:35;8.30;99.90
44843;DHT22;31884;52.538;13.820;2023-05-07T00:39:01;8.30;99.90
44843;DHT22;31884;52.538;13.820;2023-05-07T00:41:28;8.30;99.90
44843;DHT22;31884;52.538;13.820;2023-05-07T00:43:55;8.30;99.90
44843;DHT22;31884;52.538;13.820;2023-05-07T00:46:21;8.30;99.90
44843;DHT22;31884;52.538;13.820;2023-05-07T00:48:48;8.30;99.90
44843;DHT22;31884;52.538;13.820;2023-05-07T00:51:14;8.30;99.90
44843;DHT22;31884;52.538;13.820;2023-05-07T00:53:40;8.30;99.90
44843;DHT22;31884;52.538;13.820;2023-05-07T00:56:06;8.30;99.90
44843;DHT22;31884;52.538;13.820;2023-05-07T00:58:33;8.30;99.90
44843;DHT22;31884;52.538;13.820;2023-05-07T01:00:59;8.20;99.90
44843;DHT22;31884;52.538;13.820;2023-05-07T01:03:24;8.30;99.90
44843;DHT22;31884;52.538;13.820;2023-05-07T01:05:52;8.30;99.90
44843;DHT22;31884;52.538;13.820;2023-05-07T01:08:18;8.20;99.90
44843;DHT22;31884;52.538;13.820;2023-05-07T01:10:44;8.30;99.90
44843;DHT22;31884;52.538;13.820;2023-05-07T01:13:11;8.30;99.90
44843;DHT22;31884;52.538;13.820;2023-05-07T01:15:37;8.30;99.90
44843;DHT22;31884;52.538;13.820;2023-05-07T01:18:03;8.20;99.90
44843;DHT22;31884;52.538;13.820;2023-05-07T01:20:29;8.20;99.90
44843;DHT22;31884;52.538;13.820;2023-05-07T01:22:56;8.20;99.90
44843;DHT22;31884;52.538;13.820;2023-05-07T01:25:22;8.20;99.90
44843;DHT22;31884;52.538;13.820;2023-05-07T01:27:48;8.20;99.90
44843;DHT22;31884;52.538;13.820;2023-05-07T01:30:14;8.20;99.90
44843;DHT22;31884;52.538;13.820;2023-05-07T01:32:52;8.20;99.90
44843;DHT22;31884;52.538;13.820;2023-05-07T01:35:20;8.20;99.90
44843;DHT22;31884;52.538;13.820;2023-05-07T01:37:48;8.20;99.90
44843;DHT22;31884;52.538;13.820;2023-05-07T01:40:14;8.20;99.90
44843;DHT22;31884;52.538;13.820;2023-05-07T01:42:42;8.20;99.90
44843;DHT22;31884;52.538;13.820;2023-05-07T01:45:08;8.20;99.90
44843;DHT22;31884;52.538;13.820;2023-05-07T01:47:34;8.20;99.90
44843;DHT22;31884;52.538;13.820;2023-05-07T01:50:01;8.20;99.90
44843;DHT22;31884;52.538;13.820;2023-05-07T01:52:29;8.20;99.90
44843;DHT22;31884;52.538;13.820;2023-05-07T01:54:54;8.20;99.90
44843;DHT22;31884;52.538;13.820;2023-05-07T01:57:20;8.20;99.90
44843;DHT22;31884;52.538;13.820;2023-05-07T01:59:46;8.20;99.90
44843;DHT22;31884;52.538;13.820;2023-05-07T02:02:11;8.20;99.90
44843;DHT22;31884;52.538;13.820;2023-05-07T02:04:38;8.20;99.90
44843;DHT22;31884;52.538;13.820;2023-05-07T02:07:03;8.20;99.90
44843;DHT22;31884;52.538;13.820;2023-05-07T02:09:29;8.20;99.90
44843;DHT22;31884;52.538;13.820;2023-05-07T02:11:55;8.20;99.90
44843;DHT22;31884;52.538;13.820;2023-05-07T02:14:20;8.10;99.90
44843;DHT22;31884;52.538;13.820;2023-05-07T02:16:46;8.20;99.90
44843;DHT22;31884;52.538;13.820;2023-05-07T02:19:11;8.10;99.90
44843;DHT22;31884;52.538;13.820;2023-05-07T02:21:38;8.20;99.90
44843;DHT22;31884;52.538;13.820;2023-05-07T02:24:03;8.20;99.90
44843;DHT22;31884;52.538;13.820;2023-05-07T02:26:29;8.20;99.90
44843;DHT22;31884;52.538;13.820;2023-05-07T02:28:54;8.20;99.90
44843;DHT22;31884;52.538;13.820;2023-05-07T02:31:20;8.20;99.90
44843;DHT22;31884;52.538;13.820;2023-05-07T02:33:45;8.10;99.90
44843;DHT22;31884;52.538;13.820;2023-05-07T02:36:11;8.10;99.90
44843;DHT22;31884;52.538;13.820;2023-05-07T02:38:38;8.10;99.90
44843;DHT22;31884;52.538;13.820;2023-05-07T02:41:04;8.10;99.90
44843;DHT22;31884;52.538;13.820;2023-05-07T02:43:30;8.00;99.90
44843;DHT22;31884;52.538;13.820;2023-05-07T02:46:06;8.00;99.90
44843;DHT22;31884;52.538;13.820;2023-05-07T02:48:33;8.00;99.90
44843;DHT22;31884;52.538;13.820;2023-05-07T02:50:59;8.00;99.90
44843;DHT22;31884;52.538;13.820;2023-05-07T02:53:25;8.00;99.90
44843;DHT22;31884;52.538;13.820;2023-05-07T02:55:56;8.00;99.90
44843;DHT22;31884;52.538;13.820;2023-05-07T02:58:23;8.00;99.90
44843;DHT22;31884;52.538;13.820;2023-05-07T03:00:48;8.00;99.90
44843;DHT22;31884;52.538;13.820;2023-05-07T03:03:15;8.00;99.90
44843;DHT22;31884;52.538;13.820;2023-05-07T03:05:40;8.00;99.90
44843;DHT22;31884;52.538;13.820;2023-05-07T03:08:06;8.00;99.90
44843;DHT22;31884;52.538;13.820;2023-05-07T03:10:32;7.90;99.90
44843;DHT22;31884;52.538;13.820;2023-05-07T03:12:58;7.90;99.90
44843;DHT22;31884;52.538;13.820;2023-05-07T03:15:23;7.90;99.90
44843;DHT22;31884;52.538;13.820;2023-05-07T03:17:49;7.90;99.90
44843;DHT22;31884;52.538;13.820;2023-05-07T03:20:14;7.90;99.90
44843;DHT22;31884;52.538;13.820;2023-05-07T03:22:40;7.90;99.90
44843;DHT22;31884;52.538;13.820;2023-05-07T03:25:08;7.90;99.90
44843;DHT22;31884;52.538;13.820;2023-05-07T03:27:34;7.90;99.90
44843;DHT22;31884;52.538;13.820;2023-05-07T03:30:00;7.90;99.90
44843;DHT22;31884;52.538;13.820;2023-05-07T03:32:26;7.90;99.90
44843;DHT22;31884;52.538;13.820;2023-05-07T03:34:51;7.90;99.90
44843;DHT22;31884;52.538;13.820;2023-05-07T03:37:18;7.90;99.90
44843;DHT22;31884;52.538;13.820;2023-05-07T03:39:44;7.90;99.90
44843;DHT22;31884;52.538;13.820;2023-05-07T03:42:10;7.90;99.90
44843;DHT22;31884;52.538;13.820;2023-05-07T03:44:36;7.90;99.90
44843;DHT22;31884;52.538;13.820;2023-05-07T03:47:02;7.90;99.90
44843;DHT22;31884;52.538;13.820;2023-05-07T03:49:28;7.90;99.90
44843;DHT22;31884;52.538;13.820;2023-05-07T03:51:54;7.90;99.90
44843;DHT22;31884;52.538;13.820;2023-05-07T03:54:19;7.90;99.90
44843;DHT22;31884;52.538;13.820;2023-05-07T03:56:45;7.90;99.90
44843;DHT22;31884;52.538;13.820;2023-05-07T03:59:11;8.00;99.90
44843;DHT22;31884;52.538;13.820;2023-05-07T04:01:38;8.00;99.90
44843;DHT22;31884;52.538;13.820;2023-05-07T04:04:04;8.00;99.90
44843;DHT22;31884;52.538;13.820;2023-05-07T04:06:30;8.00;99.90
44843;DHT22;31884;52.538;13.820;2023-05-07T04:08:56;8.00;99.90
44843;DHT22;31884;52.538;13.820;2023-05-07T04:11:22;8.00;99.90
44843;DHT22;31884;52.538;13.820;2023-05-07T04:13:47;8.00;99.90
44843;DHT22;31884;52.538;13.820;2023-05-07T04:16:13;8.00;99.90
44843;DHT22;31884;52.538;13.820;2023-05-07T04:18:39;8.00;99.90
44843;DHT22;31884;52.538;13.820;2023-05-07T04:21:05;8.00;99.90
44843;DHT22;31884;52.538;13.820;2023-05-07T04:23:30;8.00;99.90
44843;DHT22;31884;52.538;13.820;2023-05-07T04:25:56;8.00;99.90
44843;DHT22;31884;52.538;13.820;2023-05-07T04:28:24;8.10;99.90
44843;DHT22;31884;52.538;13.820;2023-05-07T04:30:49;8.10;99.90
44843;DHT22;31884;52.538;13.820;2023-05-07T04:33:15;8.10;99.90
44843;DHT22;31884;52.538;13.820;2023-05-07T04:35:44;8.10;99.90
44843;DHT22;31884;52.538;13.820;2023-05-07T04:38:09;8.10;99.90
44843;DHT22;31884;52.538;13.820;2023-05-07T04:40:38;8.20;99.90
44843;DHT22;31884;52.538;13.820;2023-05-07T04:43:04;8.10;99.90
44843;DHT22;31884;52.538;13.820;2023-05-07T04:45:29;8.20;99.90
44843;DHT22;31884;52.538;13.820;2023-05-07T04:47:55;8.20;99.90
44843;DHT22;31884;52.538;13.820;2023-05-07T04:50:20;8.30;99.90
44843;DHT22;31884;52.538;13.820;2023-05-07T04:52:49;8.30;99.90
44843;DHT22;31884;52.538;13.820;2023-05-07T04:55:14;8.40;99.90
44843;DHT22;31884;52.538;13.820;2023-05-07T04:57:40;8.40;99.90
44843;DHT22;31884;52.538;13.820;2023-05-07T05:00:07;8.50;99.90
44843;DHT22;31884;52.538;13.820;2023-05-07T05:02:34;8.60;99.90
44843;DHT22;31884;52.538;13.820;2023-05-07T05:05:00;8.70;99.90
44843;DHT22;31884;52.538;13.820;2023-05-07T05:07:28;8.70;99.90
44843;DHT22;31884;52.538;13.820;2023-05-07T05:09:54;8.80;99.90
44843;DHT22;31884;52.538;13.820;2023-05-07T05:12:20;9.00;99.90
44843;DHT22;31884;52.538;13.820;2023-05-07T05:14:46;9.10;99.90
44843;DHT22;31884;52.538;13.820;2023-05-07T05:17:12;9.10;99.90
44843;DHT22;31884;52.538;13.820;2023-05-07T05:19:37;9.20;99.90
44843;DHT22;31884;52.538;13.820;2023-05-07T05:22:03;9.20;99.90
44843;DHT22;31884;52.538;13.820;2023-05-07T05:24:29;9.10;99.90
44843;DHT22;31884;52.538;13.820;2023-05-07T05:26:55;9.10;99.90
44843;DHT22;31884;52.538;13.820;2023-05-07T05:29:21;9.10;99.90
44843;DHT22;31884;52.538;13.820;2023-05-07T05:31:46;9.30;99.90
44843;DHT22;31884;52.538;13.820;2023-05-07T05:34:12;9.30;99.90
44843;DHT22;31884;52.538;13.820;2023-05-07T05:36:37;9.30;99.90
44843;DHT22;31884;52.538;13.820;2023-05-07T05:39:03;9.30;99.90
44843;DHT22;31884;52.538;13.820;2023-05-07T05:41:29;9.20;99.90
44843;DHT22;31884;52.538;13.820;2023-05-07T05:43:54;9.10;99.90
44843;DHT22;31884;52.538;13.820;2023-05-07T05:46:20;9.20;99.90
44843;DHT22;31884;52.538;13.820;2023-05-07T05:48:45;9.50;99.90
44843;DHT22;31884;52.538;13.820;2023-05-07T05:51:11;9.70;99.90
44843;DHT22;31884;52.538;13.820;2023-05-07T05:53:36;9.60;99.90
44843;DHT22;31884;52.538;13.820;2023-05-07T05:56:02;9.60;99.90
44843;DHT22;31884;52.538;13.820;2023-05-07T05:58:27;9.60;99.90
44843;DHT22;31884;52.538;13.820;2023-05-07T06:00:53;9.40;99.90
44843;DHT22;31884;52.538;13.820;2023-05-07T06:03:19;9.30;99.90
44843;DHT22;31884;52.538;13.820;2023-05-07T06:05:44;9.40;99.90
44843;DHT22;31884;52.538;13.820;2023-05-07T06:08:10;9.50;99.90
44843;DHT22;31884;52.538;13.820;2023-05-07T06:10:37;9.40;99.90
44843;DHT22;31884;52.538;13.820;2023-05-07T06:13:02;9.30;99.90
44843;DHT22;31884;52.538;13.820;2023-05-07T06:15:28;9.30;99.90
44843;DHT22;31884;52.538;13.820;2023-05-07T06:17:53;9.50;99.90
44843;DHT22;31884;52.538;13.820;2023-05-07T06:20:21;9.60;99.90
44843;DHT22;31884;52.538;13.820;2023-05-07T06:22:46;10.00;99.90
44843;DHT22;31884;52.538;13.820;2023-05-07T06:25:12;11.90;99.90
44843;DHT22;31884;52.538;13.820;2023-05-07T06:27:37;13.90;90.80
44843;DHT22;31884;52.538;13.820;2023-05-07T06:30:06;14.60;68.80
44843;DHT22;31884;52.538;13.820;2023-05-07T06:32:32;15.30;92.80
44843;DHT22;31884;52.538;13.820;2023-05-07T06:34:57;16.80;58.00
44843;DHT22;31884;52.538;13.820;2023-05-07T06:37:23;18.10;52.70
44843;DHT22;31884;52.538;13.820;2023-05-07T06:39:48;18.00;48.80
44843;DHT22;31884;52.538;13.820;2023-05-07T06:42:14;17.40;44.60
44843;DHT22;31884;52.538;13.820;2023-05-07T06:44:39;17.10;70.90
44843;DHT22;31884;52.538;13.820;2023-05-07T06:47:05;17.80;53.00
44843;DHT22;31884;52.538;13.820;2023-05-07T06:49:30;17.00;70.50
44843;DHT22;31884;52.538;13.820;2023-05-07T06:51:56;16.20;62.10
44843;DHT22;31884;52.538;13.820;2023-05-07T06:54:22;15.10;53.20
44843;DHT22;31884;52.538;13.820;2023-05-07T06:56:48;14.50;56.70
44843;DHT22;31884;52.538;13.820;2023-05-07T06:59:13;14.90;63.70
44843;DHT22;31884;52.538;13.820;2023-05-07T07:01:39;15.80;55.70
44843;DHT22;31884;52.538;13.820;2023-05-07T07:04:04;17.10;56.50
44843;DHT22;31884;52.538;13.820;2023-05-07T07:06:30;18.90;55.90
44843;DHT22;31884;52.538;13.820;2023-05-07T07:08:57;19.40;32.90
44843;DHT22;31884;52.538;13.820;2023-05-07T07:11:23;19.40;41.10
44843;DHT22;31884;52.538;13.820;2023-05-07T07:13:48;19.40;33.60
44843;DHT22;31884;52.538;13.820;2023-05-07T07:16:14;20.30;39.00
44843;DHT22;31884;52.538;13.820;2023-05-07T07:18:39;20.80;24.60
44843;DHT22;31884;52.538;13.820;2023-05-07T07:21:05;19.50;25.80
44843;DHT22;31884;52.538;13.820;2023-05-07T07:23:30;19.40;41.30
44843;DHT22;31884;52.538;13.820;2023-05-07T07:25:56;20.40;37.00
44843;DHT22;31884;52.538;13.820;2023-05-07T07:28:22;21.70;30.00
44843;DHT22;31884;52.538;13.820;2023-05-07T07:30:47;22.10;23.10
44843;DHT22;31884;52.538;13.820;2023-05-07T07:33:13;22.50;16.80
44843;DHT22;31884;52.538;13.820;2023-05-07T07:35:39;21.60;33.50
44843;DHT22;31884;52.538;13.820;2023-05-07T07:38:04;22.20;32.60
44843;DHT22;31884;52.538;13.820;2023-05-07T07:40:30;22.10;20.50
44843;DHT22;31884;52.538;13.820;2023-05-07T07:42:56;22.10;32.90
44843;DHT22;31884;52.538;13.820;2023-05-07T07:45:22;23.30;23.10
44843;DHT22;31884;52.538;13.820;2023-05-07T07:47:48;23.10;25.30
44843;DHT22;31884;52.538;13.820;2023-05-07T07:50:13;22.40;27.90
44843;DHT22;31884;52.538;13.820;2023-05-07T07:52:39;21.10;23.40
44843;DHT22;31884;52.538;13.820;2023-05-07T07:55:05;20.60;21.70
44843;DHT22;31884;52.538;13.820;2023-05-07T07:57:31;19.80;19.70
44843;DHT22;31884;52.538;13.820;2023-05-07T07:59:56;17.70;24.20
44843;DHT22;31884;52.538;13.820;2023-05-07T08:02:22;17.50;32.70
44843;DHT22;31884;52.538;13.820;2023-05-07T08:04:47;18.10;29.60
44843;DHT22;31884;52.538;13.820;2023-05-07T08:07:13;18.30;35.10
44843;DHT22;31884;52.538;13.820;2023-05-07T08:09:38;18.30;24.20
44843;DHT22;31884;52.538;13.820;2023-05-07T08:12:05;18.50;32.40
44843;DHT22;31884;52.538;13.820;2023-05-07T08:14:31;18.00;24.40
44843;DHT22;31884;52.538;13.820;2023-05-07T08:16:56;17.20;27.00
44843;DHT22;31884;52.538;13.820;2023-05-07T08:19:22;16.50;33.30
44843;DHT22;31884;52.538;13.820;2023-05-07T08:21:48;16.30;31.20
44843;DHT22;31884;52.538;13.820;2023-05-07T08:24:17;16.20;34.80
44843;DHT22;31884;52.538;13.820;2023-05-07T08:26:44;15.30;32.80
44843;DHT22;31884;52.538;13.820;2023-05-07T08:29:10;14.80;37.00
44843;DHT22;31884;52.538;13.820;2023-05-07T08:31:36;14.60;39.70
44843;DHT22;31884;52.538;13.820;2023-05-07T08:34:02;14.50;45.10
44843;DHT22;31884;52.538;13.820;2023-05-07T08:36:28;14.80;48.00
44843;DHT22;31884;52.538;13.820;2023-05-07T08:38:53;14.80;43.60
44843;DHT22;31884;52.538;13.820;2023-05-07T08:41:20;14.70;42.00
44843;DHT22;31884;52.538;13.820;2023-05-07T08:43:48;14.40;46.40
44843;DHT22;31884;52.538;13.820;2023-05-07T08:46:20;14.30;47.60
44843;DHT22;31884;52.538;13.820;2023-05-07T08:48:50;14.00;48.40
44843;DHT22;31884;52.538;13.820;2023-05-07T08:51:20;13.50;49.70
44843;DHT22;31884;52.538;13.820;2023-05-07T08:53:47;13.60;52.30
44843;DHT22;31884;52.538;13.820;2023-05-07T08:56:14;13.70;52.30
44843;DHT22;31884;52.538;13.820;2023-05-07T08:58:41;13.50;51.10
44843;DHT22;31884;52.538;13.820;2023-05-07T09:01:08;14.20;54.80
44843;DHT22;31884;52.538;13.820;2023-05-07T09:03:34;14.50;49.30
44843;DHT22;31884;52.538;13.820;2023-05-07T09:06:00;14.50;53.30
44843;DHT22;31884;52.538;13.820;2023-05-07T09:08:27;14.60;47.30
44843;DHT22;31884;52.538;13.820;2023-05-07T09:10:53;14.60;49.90
44843;DHT22;31884;52.538;13.820;2023-05-07T09:13:19;14.70;48.70
44843;DHT22;31884;52.538;13.820;2023-05-07T09:15:44;14.50;49.40
44843;DHT22;31884;52.538;13.820;2023-05-07T09:18:10;14.30;49.00
44843;DHT22;31884;52.538;13.820;2023-05-07T09:20:39;14.40;51.40
44843;DHT22;31884;52.538;13.820;2023-05-07T09:23:07;14.80;56.30
44843;DHT22;31884;52.538;13.820;2023-05-07T09:25:34;15.10;50.80
44843;DHT22;31884;52.538;13.820;2023-05-07T09:28:01;15.10;45.70
44843;DHT22;31884;52.538;13.820;2023-05-07T09:30:28;15.50;47.50
44843;DHT22;31884;52.538;13.820;2023-05-07T09:32:54;15.60;43.30
44843;DHT22;31884;52.538;13.820;2023-05-07T09:35:20;15.40;49.00
44843;DHT22;31884;52.538;13.820;2023-05-07T09:37:56;15.10;45.00
44843;DHT22;31884;52.538;13.820;2023-05-07T09:40:23;14.90;46.80
44843;DHT22;31884;52.538;13.820;2023-05-07T09:42:49;14.50;47.00
44843;DHT22;31884;52.538;13.820;2023-05-07T09:45:16;14.50;48.80
44843;DHT22;31884;52.538;13.820;2023-05-07T09:47:43;14.50;49.00
44843;DHT22;31884;52.538;13.820;2023-05-07T09:50:12;14.50;47.70
44843;DHT22;31884;52.538;13.820;2023-05-07T09:52:41;14.80;45.60
44843;DHT22;31884;52.538;13.820;2023-05-07T09:55:07;14.80;44.70
44843;DHT22;31884;52.538;13.820;2023-05-07T09:57:33;14.60;45.20
44843;DHT22;31884;52.538;13.820;2023-05-07T09:59:59;14.70;43.70
44843;DHT22;31884;52.538;13.820;2023-05-07T10:02:29;14.40;45.50
44843;DHT22;31884;52.538;13.820;2023-05-07T10:04:56;14.40;46.50
44843;DHT22;31884;52.538;13.820;2023-05-07T10:07:24;14.50;46.10
44843;DHT22;31884;52.538;13.820;2023-05-07T10:09:50;15.00;49.80
44843;DHT22;31884;52.538;13.820;2023-05-07T10:12:17;15.40;45.20
44843;DHT22;31884;52.538;13.820;2023-05-07T10:14:44;15.70;42.90
44843;DHT22;31884;52.538;13.820;2023-05-07T10:17:11;15.70;38.90
44843;DHT22;31884;52.538;13.820;2023-05-07T10:19:37;15.60;40.50
44843;DHT22;31884;52.538;13.820;2023-05-07T10:22:05;15.60;42.10
44843;DHT22;31884;52.538;13.820;2023-05-07T10:24:35;15.70;42.20
44843;DHT22;31884;52.538;13.820;2023-05-07T10:27:04;15.70;38.30
44843;DHT22;31884;52.538;13.820;2023-05-07T10:30:09;15.60;38.70
44843;DHT22;31884;52.538;13.820;2023-05-07T10:32:39;15.40;39.20
44843;DHT22;31884;52.538;13.820;2023-05-07T10:35:12;15.40;39.60
44843;DHT22;31884;52.538;13.820;2023-05-07T10:37:40;15.00;40.60
44843;DHT22;31884;52.538;13.820;2023-05-07T10:40:06;14.80;40.80
44843;DHT22;31884;52.538;13.820;2023-05-07T10:42:32;14.80;42.90
44843;DHT22;31884;52.538;13.820;2023-05-07T10:44:58;15.10;42.90
44843;DHT22;31884;52.538;13.820;2023-05-07T10:47:36;15.20;41.10
44843;DHT22;31884;52.538;13.820;2023-05-07T10:50:22;15.30;45.30
44843;DHT22;31884;52.538;13.820;2023-05-07T10:55:42;14.90;41.00
44843;DHT22;31884;52.538;13.820;2023-05-07T10:58:24;15.00;41.60
44843;DHT22;31884;52.538;13.820;2023-05-07T11:00:56;15.00;40.30
44843;DHT22;31884;52.538;13.820;2023-05-07T11:03:22;15.20;39.60
44843;DHT22;31884;52.538;13.820;2023-05-07T11:05:47;15.20;39.20
44843;DHT22;31884;52.538;13.820;2023-05-07T11:11:17;15.40;37.00
44843;DHT22;31884;52.538;13.820;2023-05-07T11:13:43;15.60;35.90
44843;DHT22;31884;52.538;13.820;2023-05-07T11:16:23;15.60;37.60
44843;DHT22;31884;52.538;13.820;2023-05-07T11:18:53;15.40;36.10
44843;DHT22;31884;52.538;13.820;2023-05-07T11:21:38;15.50;38.60
44843;DHT22;31884;52.538;13.820;2023-05-07T11:24:08;15.60;37.70
44843;DHT22;31884;52.538;13.820;2023-05-07T11:26:48;15.70;38.30
44843;DHT22;31884;52.538;13.820;2023-05-07T11:29:21;15.60;37.20
44843;DHT22;31884;52.538;13.820;2023-05-07T11:31:51;15.70;40.00
44843;DHT22;31884;52.538;13.820;2023-05-07T11:34:24;15.70;36.50
44843;DHT22;31884;52.538;13.820;2023-05-07T11:36:50;15.50;37.20
44843;DHT22;31884;52.538;13.820;2023-05-07T11:39:32;15.30;37.60
44843;DHT22;31884;52.538;13.820;2023-05-07T11:42:01;15.10;37.50
44843;DHT22;31884;52.538;13.820;2023-05-07T11:44:45;15.10;39.70
44843;DHT22;31884;52.538;13.820;2023-05-07T11:47:17;15.40;37.60
44843;DHT22;31884;52.538;13.820;2023-05-07T11:49:42;15.30;35.80
44843;DHT22;31884;52.538;13.820;2023-05-07T11:52:09;15.20;36.70
44843;DHT22;31884;52.538;13.820;2023-05-07T11:54:37;15.30;37.00
44843;DHT22;31884;52.538;13.820;2023-05-07T11:57:03;15.20;37.70
44843;DHT22;31884;52.538;13.820;2023-05-07T11:59:28;15.20;37.20
44843;DHT22;31884;52.538;13.820;2023-05-07T12:01:57;15.40;37.90
44843;DHT22;31884;52.538;13.820;2023-05-07T12:04:23;15.50;37.20
44843;DHT22;31884;52.538;13.820;2023-05-07T12:06:48;15.30;36.00
44843;DHT22;31884;52.538;13.820;2023-05-07T12:09:16;15.00;36.00
44843;DHT22;31884;52.538;13.820;2023-05-07T12:11:45;14.90;36.40
44843;DHT22;31884;52.538;13.820;2023-05-07T12:14:11;14.80;39.60
44843;DHT22;31884;52.538;13.820;2023-05-07T12:16:38;14.90;39.30
44843;DHT22;31884;52.538;13.820;2023-05-07T12:19:04;15.10;40.00
44843;DHT22;31884;52.538;13.820;2023-05-07T12:21:31;15.20;38.00
44843;DHT22;31884;52.538;13.820;2023-05-07T12:23:57;15.30;39.00
44843;DHT22;31884;52.538;13.820;2023-05-07T12:26:23;15.30;39.00
44843;DHT22;31884;52.538;13.820;2023-05-07T12:28:49;15.20;37.80
44843;DHT22;31884;52.538;13.820;2023-05-07T12:31:15;15.10;37.60
44843;DHT22;31884;52.538;13.820;2023-05-07T12:33:42;15.10;39.30
44843;DHT22;31884;52.538;13.820;2023-05-07T12:36:07;15.20;37.30
44843;DHT22;31884;52.538;13.820;2023-05-07T12:38:37;15.20;38.90
44843;DHT22;31884;52.538;13.820;2023-05-07T12:41:04;15.30;40.00
44843;DHT22;31884;52.538;13.820;2023-05-07T12:43:30;15.20;40.90
44843;DHT22;31884;52.538;13.820;2023-05-07T12:45:57;15.30;37.30
44843;DHT22;31884;52.538;13.820;2023-05-07T12:48:24;15.30;36.30
44843;DHT22;31884;52.538;13.820;2023-05-07T12:50:53;15.20;36.00
44843;DHT22;31884;52.538;13.820;2023-05-07T12:53:21;15.20;37.50
44843;DHT22;31884;52.538;13.820;2023-05-07T12:55:49;15.30;37.10
44843;DHT22;31884;52.538;13.820;2023-05-07T12:58:17;15.30;35.20
44843;DHT22;31884;52.538;13.820;2023-05-07T13:00:43;15.60;35.70
44843;DHT22;31884;52.538;13.820;2023-05-07T13:03:09;15.70;35.40
44843;DHT22;31884;52.538;13.820;2023-05-07T13:05:34;16.00;36.90
44843;DHT22;31884;52.538;13.820;2023-05-07T13:08:00;16.20;36.80
44843;DHT22;31884;52.538;13.820;2023-05-07T13:10:27;16.10;32.20
44843;DHT22;31884;52.538;13.820;2023-05-07T13:12:52;16.10;34.60
44843;DHT22;31884;52.538;13.820;2023-05-07T13:15:18;16.20;33.00
44843;DHT22;31884;52.538;13.820;2023-05-07T13:17:44;16.30;31.30
44843;DHT22;31884;52.538;13.820;2023-05-07T13:20:10;16.40;30.30
44843;DHT22;31884;52.538;13.820;2023-05-07T13:22:37;16.40;30.40
44843;DHT22;31884;52.538;13.820;2023-05-07T13:25:02;16.50;32.50
44843;DHT22;31884;52.538;13.820;2023-05-07T13:27:28;16.60;30.80
44843;DHT22;31884;52.538;13.820;2023-05-07T13:29:56;16.70;31.70
44843;DHT22;31884;52.538;13.820;2023-05-07T13:32:21;16.80;29.00
44843;DHT22;31884;52.538;13.820;2023-05-07T13:34:47;17.00;29.30
44843;DHT22;31884;52.538;13.820;2023-05-07T13:37:12;16.90;30.30
44843;DHT22;31884;52.538;13.820;2023-05-07T13:39:37;16.70;27.60
44843;DHT22;31884;52.538;13.820;2023-05-07T13:42:03;16.50;28.60
44843;DHT22;31884;52.538;13.820;2023-05-07T13:44:28;16.50;28.90
44843;DHT22;31884;52.538;13.820;2023-05-07T13:46:54;16.50;28.10
44843;DHT22;31884;52.538;13.820;2023-05-07T13:49:19;16.60;29.20
44843;DHT22;31884;52.538;13.820;2023-05-07T13:51:45;16.50;30.00
44843;DHT22;31884;52.538;13.820;2023-05-07T13:54:10;16.70;28.70
44843;DHT22;31884;52.538;13.820;2023-05-07T13:56:37;16.80;28.90
44843;DHT22;31884;52.538;13.820;2023-05-07T13:59:02;16.60;28.80
44843;DHT22;31884;52.538;13.820;2023-05-07T14:01:28;16.30;29.70
44843;DHT22;31884;52.538;13.820;2023-05-07T14:03:54;16.10;31.80
44843;DHT22;31884;52.538;13.820;2023-05-07T14:06:19;16.20;29.90
44843;DHT22;31884;52.538;13.820;2023-05-07T14:08:45;16.20;30.00
44843;DHT22;31884;52.538;13.820;2023-05-07T14:11:10;16.30;31.20
44843;DHT22;31884;52.538;13.820;2023-05-07T14:13:36;16.30;29.20
44843;DHT22;31884;52.538;13.820;2023-05-07T14:16:02;16.30;29.10
44843;DHT22;31884;52.538;13.820;2023-05-07T14:18:28;16.40;30.00
44843;DHT22;31884;52.538;13.820;2023-05-07T14:20:54;16.40;30.10
44843;DHT22;31884;52.538;13.820;2023-05-07T14:23:19;16.50;30.70
44843;DHT22;31884;52.538;13.820;2023-05-07T14:25:47;16.60;28.70
44843;DHT22;31884;52.538;13.820;2023-05-07T14:28:13;16.50;30.00
44843;DHT22;31884;52.538;13.820;2023-05-07T14:30:38;16.60;29.90
44843;DHT22;31884;52.538;13.820;2023-05-07T14:33:04;16.60;31.30
44843;DHT22;31884;52.538;13.820;2023-05-07T14:35:29;16.60;32.30
44843;DHT22;31884;52.538;13.820;2023-05-07T14:37:55;16.50;29.90
44843;DHT22;31884;52.538;13.820;2023-05-07T14:40:20;16.30;29.80
44843;DHT22;31884;52.538;13.820;2023-05-07T14:42:46;16.00;30.20
44843;DHT22;31884;52.538;13.820;2023-05-07T14:45:11;15.90;31.60
44843;DHT22;31884;52.538;13.820;2023-05-07T14:47:37;16.10;33.20
44843;DHT22;31884;52.538;13.820;2023-05-07T14:50:02;16.00;30.40
44843;DHT22;31884;52.538;13.820;2023-05-07T14:52:28;15.90;32.30
44843;DHT22;31884;52.538;13.820;2023-05-07T14:54:53;15.90;30.00
44843;DHT22;31884;52.538;13.820;2023-05-07T14:57:19;15.80;28.60
44843;DHT22;31884;52.538;13.820;2023-05-07T14:59:45;15.70;30.50
44843;DHT22;31884;52.538;13.820;2023-05-07T15:02:12;15.60;32.40
44843;DHT22;31884;52.538;13.820;2023-05-07T15:04:38;15.70;33.50
44843;DHT22;31884;52.538;13.820;2023-05-07T15:07:04;15.80;32.60
44843;DHT22;31884;52.538;13.820;2023-05-07T15:09:30;15.60;32.20
44843;DHT22;31884;52.538;13.820;2023-05-07T15:11:55;15.50;32.60
44843;DHT22;31884;52.538;13.820;2023-05-07T15:14:21;15.50;33.40
44843;DHT22;31884;52.538;13.820;2023-05-07T15:16:47;15.60;32.90
44843;DHT22;31884;52.538;13.820;2023-05-07T15:19:13;15.50;31.50
44843;DHT22;31884;52.538;13.820;2023-05-07T15:21:40;15.30;31.80
44843;DHT22;31884;52.538;13.820;2023-05-07T15:24:06;15.20;33.40